createdAt,value
2023-03-08T00:00:20.363Z,7.72
2023-03-08T00:03:26.423Z,9.40
2023-03-08T00:06:30.428Z,7.60
2023-03-08T00:09:36.789Z,6.85
2023-03-08T00:12:42.801Z,7.93
2023-03-08T00:15:48.674Z,5.47
2023-03-08T00:18:52.765Z,8.55
2023-03-08T00:21:59.161Z,7.63
2023-03-08T00:25:02.990Z,12.18
2023-03-08T00:28:11.010Z,11.85
2023-03-08T00:31:15.496Z,7.05
2023-03-08T00:34:21.511Z,7.78
2023-03-08T00:37:25.372Z,11.77
2023-03-08T00:40:31.495Z,9.23
2023-03-08T00:43:40.626Z,8.52
2023-03-08T00:46:46.597Z,12.40
2023-03-08T00:49:51.083Z,10.52
2023-03-08T00:52:57.419Z,11.30
2023-03-08T00:56:02.562Z,10.20
2023-03-08T00:59:12.649Z,9.40
2023-03-08T01:02:17.418Z,12.80
2023-03-08T01:05:25.014Z,19.52
2023-03-08T01:08:29.212Z,10.85
2023-03-08T01:11:36.084Z,10.15
2023-03-08T01:14:41.916Z,14.07
2023-03-08T01:17:48.018Z,9.63
2023-03-08T01:20:58.276Z,9.60
2023-03-08T01:24:04.680Z,11.20
2023-03-08T01:27:08.541Z,7.57
2023-03-08T01:30:17.115Z,10.68
2023-03-08T01:33:21.365Z,10.88
2023-03-08T01:36:29.680Z,10.18
2023-03-08T01:39:34.028Z,8.50
2023-03-08T01:42:40.644Z,13.77
2023-03-08T01:46:13.384Z,12.45
2023-03-08T01:49:24.128Z,10.82
2023-03-08T01:52:35.273Z,8.70
2023-03-08T01:55:41.416Z,11.93
2023-03-08T01:58:47.605Z,8.93
2023-03-08T02:01:55.711Z,9.32
2023-03-08T02:05:00.581Z,8.40
2023-03-08T02:08:07.626Z,12.48
2023-03-08T02:11:16.664Z,10.55
2023-03-08T02:14:23.259Z,19.17
2023-03-08T02:17:30.811Z,13.10
2023-03-08T02:20:40.139Z,14.85
2023-03-08T02:23:46.854Z,11.85
2023-03-08T02:26:56.720Z,12.75
2023-03-08T02:30:16.503Z,11.82
2023-03-08T02:33:22.568Z,11.93
2023-03-08T02:36:27.117Z,11.70
2023-03-08T02:39:35.151Z,11.43
2023-03-08T02:42:39.448Z,13.30
2023-03-08T02:45:45.748Z,13.98
2023-03-08T02:48:52.222Z,12.13
2023-03-08T02:51:59.704Z,11.93
2023-03-08T02:55:06.180Z,11.73
2023-03-08T02:58:12.519Z,11.77
2023-03-08T03:01:17.157Z,13.98
2023-03-08T03:04:23.055Z,12.10
2023-03-08T03:07:27.473Z,11.63
2023-03-08T03:13:42.060Z,20.63
2023-03-08T03:16:50.575Z,12.52
2023-03-08T03:19:54.847Z,11.75
2023-03-08T03:23:01.355Z,11.52
2023-03-08T03:26:19.491Z,18.08
2023-03-08T03:29:29.271Z,14.02
2023-03-08T03:32:43.456Z,13.65
2023-03-08T03:35:49.861Z,12.93
2023-03-08T03:38:54.305Z,15.30
2023-03-08T03:42:03.729Z,17.20
2023-03-08T03:45:09.606Z,13.25
2023-03-08T03:48:16.674Z,15.82
2023-03-08T03:51:22.625Z,17.73
2023-03-08T03:54:35.689Z,20.15
2023-03-08T03:57:41.869Z,17.85
2023-03-08T04:00:51.840Z,19.98
2023-03-08T04:04:05.454Z,23.13
2023-03-08T04:07:14.709Z,19.63
2023-03-08T04:10:26.734Z,25.08
2023-03-08T04:13:35.250Z,24.38
2023-03-08T04:16:41.061Z,22.73
2023-03-08T04:19:54.139Z,24.67
2023-03-08T04:22:59.127Z,26.75
2023-03-08T04:26:12.746Z,26.20
2023-03-08T04:29:19.480Z,22.10
2023-03-08T04:32:25.767Z,28.00
2023-03-08T04:35:34.085Z,28.08
2023-03-08T04:38:41.894Z,27.63
2023-03-08T04:41:45.932Z,28.85
2023-03-08T04:45:02.290Z,25.60
2023-03-08T04:48:07.788Z,28.50
2023-03-08T04:51:15.862Z,26.70
2023-03-08T04:54:21.037Z,26.52
2023-03-08T04:57:34.607Z,23.95
2023-03-08T05:00:41.346Z,28.63
2023-03-08T05:03:52.650Z,25.75
2023-03-08T05:07:00.484Z,28.40
2023-03-08T05:10:11.397Z,27.00
2023-03-08T05:13:15.451Z,26.98
2023-03-08T05:16:24.280Z,29.08
2023-03-08T05:19:28.321Z,35.90
2023-03-08T05:22:44.985Z,29.25
2023-03-08T05:25:56.947Z,31.23
2023-03-08T05:29:05.756Z,31.17
2023-03-08T05:32:15.265Z,28.77
2023-03-08T05:35:21.466Z,29.73
2023-03-08T05:38:29.011Z,34.42
2023-03-08T05:41:35.973Z,30.25
2023-03-08T05:44:40.326Z,29.58
2023-03-08T05:47:50.612Z,29.02
2023-03-08T05:50:54.862Z,24.35
2023-03-08T05:54:01.693Z,26.90
2023-03-08T05:57:07.804Z,31.42
2023-03-08T06:00:16.549Z,32.55
2023-03-08T06:03:22.521Z,34.30
2023-03-08T06:06:29.482Z,32.53
2023-03-08T06:09:37.193Z,39.08
2023-03-08T06:12:43.963Z,42.05
2023-03-08T06:15:55.947Z,40.00
2023-03-08T06:19:05.365Z,41.67
2023-03-08T06:22:11.050Z,44.15
2023-03-08T06:25:18.802Z,43.83
2023-03-08T06:28:24.618Z,45.28
2023-03-08T06:31:31.709Z,41.78
2023-03-08T06:34:39.500Z,37.90
2023-03-08T06:37:45.917Z,37.92
2023-03-08T06:40:50.107Z,41.75
2023-03-08T06:43:56.248Z,28.52
2023-03-08T06:47:00.453Z,25.20
2023-03-08T06:50:09.298Z,33.42
2023-03-08T06:53:15.759Z,31.45
2023-03-08T06:59:33.318Z,25.63
2023-03-08T07:02:39.480Z,29.67
2023-03-08T07:05:45.517Z,29.05
2023-03-08T07:08:51.431Z,29.83
2023-03-08T07:11:55.337Z,31.23
2023-03-08T07:15:01.240Z,28.88
2023-03-08T07:18:05.506Z,25.83
2023-03-08T07:21:14.748Z,21.90
2023-03-08T07:24:18.713Z,29.92
2023-03-08T07:27:24.852Z,28.73
2023-03-08T07:30:28.841Z,24.73
2023-03-08T07:33:35.170Z,31.92
2023-03-08T07:36:41.288Z,31.58
2023-03-08T07:39:47.168Z,30.15
2023-03-08T07:42:51.198Z,29.67
2023-03-08T07:46:08.979Z,32.85
2023-03-08T07:49:13.205Z,31.63
2023-03-08T07:52:21.107Z,33.50
2023-03-08T07:55:25.401Z,29.33
2023-03-08T07:58:31.738Z,28.35
2023-03-08T08:01:35.663Z,29.00
2023-03-08T08:04:42.398Z,28.90
2023-03-08T08:07:49.930Z,36.33
2023-03-08T08:10:55.831Z,27.88
2023-03-08T08:13:59.786Z,26.50
2023-03-08T08:17:05.775Z,23.20
2023-03-08T08:20:11.003Z,29.70
2023-03-08T08:23:18.913Z,23.75
2023-03-08T08:26:24.057Z,30.60
2023-03-08T08:29:30.148Z,26.70
2023-03-08T08:32:34.907Z,30.42
2023-03-08T08:35:43.562Z,27.10
2023-03-08T08:38:49.939Z,28.55
2023-03-08T08:41:55.800Z,24.92
2023-03-08T08:44:59.905Z,25.13
2023-03-08T08:48:06.009Z,30.02
2023-03-08T08:51:14.684Z,27.42
2023-03-08T08:54:22.835Z,23.55
2023-03-08T08:57:26.797Z,30.40
2023-03-08T09:00:33.460Z,25.45
2023-03-08T09:03:37.423Z,27.88
2023-03-08T09:06:43.875Z,26.85
2023-03-08T09:09:49.797Z,25.45
2023-03-08T09:12:57.734Z,24.20
2023-03-08T09:16:02.833Z,27.27
2023-03-08T09:19:09.244Z,30.95
2023-03-08T09:22:13.588Z,22.75
2023-03-08T09:25:23.549Z,25.33
2023-03-08T09:28:27.518Z,24.33
2023-03-08T09:31:34.839Z,24.10
2023-03-08T09:34:38.780Z,22.90
2023-03-08T09:37:45.301Z,22.88
2023-03-08T09:41:04.305Z,24.63
2023-03-08T09:44:43.078Z,23.23
2023-03-08T09:47:50.847Z,22.08
2023-03-08T09:51:00.764Z,21.75
2023-03-08T09:54:09.256Z,19.83
2023-03-08T09:57:21.589Z,23.08
2023-03-08T10:00:30.982Z,30.42
2023-03-08T10:04:06.012Z,22.88
2023-03-08T10:07:23.039Z,19.35
2023-03-08T10:10:41.108Z,21.38
2023-03-08T10:13:51.087Z,16.58
2023-03-08T10:17:01.690Z,24.77
2023-03-08T10:20:14.119Z,21.15
2023-03-08T10:23:22.549Z,25.42
2023-03-08T10:26:27.918Z,23.83
2023-03-08T10:29:38.189Z,20.48
2023-03-08T10:32:45.412Z,25.48
2023-03-08T10:36:01.569Z,21.83
2023-03-08T10:39:09.538Z,19.65
2023-03-08T10:42:18.167Z,27.02
2023-03-08T10:45:24.986Z,25.60
2023-03-08T10:48:30.893Z,21.48
2023-03-08T10:51:34.799Z,20.08
2023-03-08T10:54:40.965Z,22.75
2023-03-08T10:57:52.581Z,23.27
2023-03-08T11:01:03.268Z,23.30
2023-03-08T11:04:14.900Z,20.48
2023-03-08T11:07:25.129Z,22.35
2023-03-08T11:10:31.639Z,22.65
2023-03-08T11:13:41.217Z,22.95
2023-03-08T11:16:57.025Z,22.77
2023-03-08T11:20:15.875Z,25.40
2023-03-08T11:23:27.212Z,28.45
2023-03-08T11:26:41.685Z,20.63
2023-03-08T11:29:56.888Z,24.55
2023-03-08T11:33:29.735Z,30.95
2023-03-08T11:36:38.520Z,36.83
2023-03-08T11:39:47.836Z,33.42
2023-03-08T11:43:03.157Z,35.67
2023-03-08T11:46:18.324Z,36.60
2023-03-08T11:49:41.418Z,34.00
2023-03-08T11:53:01.316Z,33.72
2023-03-08T11:56:28.900Z,33.35
2023-03-08T11:59:36.882Z,36.22
2023-03-08T12:02:45.237Z,39.47
2023-03-08T12:05:57.107Z,34.05
2023-03-08T12:09:07.360Z,35.55
2023-03-08T12:12:18.680Z,34.75
2023-03-08T12:15:29.765Z,34.05
2023-03-08T12:18:42.018Z,32.08
2023-03-08T12:21:53.964Z,32.33
2023-03-08T12:25:07.361Z,29.65
2023-03-08T12:28:20.083Z,31.40
2023-03-08T12:31:29.719Z,31.80
2023-03-08T12:34:40.408Z,30.85
2023-03-08T12:37:56.859Z,32.75
2023-03-08T12:41:00.878Z,27.52
2023-03-08T12:44:08.488Z,26.77
2023-03-08T12:47:22.208Z,34.72
2023-03-08T12:50:28.834Z,30.20
2023-03-08T12:53:39.820Z,33.50
2023-03-08T12:56:52.812Z,31.20
2023-03-08T12:59:59.762Z,32.10
2023-03-08T13:03:07.911Z,32.38
2023-03-08T13:06:50.084Z,35.00
2023-03-08T13:10:06.247Z,39.38
2023-03-08T13:16:46.406Z,37.90
2023-03-08T13:19:52.265Z,30.90
2023-03-08T13:23:06.710Z,27.50
2023-03-08T13:26:49.801Z,35.42
2023-03-08T13:29:57.365Z,35.45
2023-03-08T13:33:02.404Z,40.38
2023-03-08T13:36:19.569Z,33.67
2023-03-08T13:39:26.089Z,29.45
2023-03-08T13:42:34.223Z,32.92
2023-03-08T13:45:38.587Z,34.58
2023-03-08T13:48:46.337Z,34.63
2023-03-08T13:51:52.432Z,39.45
2023-03-08T13:55:00.495Z,32.83
2023-03-08T13:58:07.161Z,35.25
2023-03-08T14:01:15.436Z,27.73
2023-03-08T14:04:22.335Z,25.95
2023-03-08T14:07:31.391Z,26.25
2023-03-08T14:10:40.359Z,28.00
2023-03-08T14:13:52.020Z,28.48
2023-03-08T14:16:56.261Z,29.20
2023-03-08T14:20:04.544Z,25.17
2023-03-08T14:23:25.376Z,23.77
2023-03-08T14:26:34.379Z,30.45
2023-03-08T14:29:41.648Z,27.00
2023-03-08T14:33:05.552Z,28.15
2023-03-08T14:36:11.832Z,20.98
2023-03-08T14:39:19.552Z,25.27
2023-03-08T14:42:27.084Z,24.35
2023-03-08T14:45:38.553Z,23.08
2023-03-08T14:48:42.525Z,25.27
2023-03-08T14:51:48.710Z,20.90
2023-03-08T14:54:52.529Z,20.60
2023-03-08T14:58:01.319Z,17.45
2023-03-08T15:01:07.276Z,22.10
2023-03-08T15:04:18.376Z,23.92
2023-03-08T15:07:24.703Z,15.20
2023-03-08T15:10:33.402Z,20.83
2023-03-08T15:13:37.272Z,17.13
2023-03-08T15:16:45.220Z,14.90
2023-03-08T15:19:49.596Z,21.48
2023-03-08T15:22:58.388Z,25.15
2023-03-08T15:26:03.324Z,19.77
2023-03-08T15:29:20.600Z,16.63
2023-03-08T15:32:26.648Z,18.95
2023-03-08T15:35:33.171Z,19.63
2023-03-08T15:38:37.076Z,23.40
2023-03-08T15:41:43.222Z,24.75
2023-03-08T15:44:47.185Z,18.58
2023-03-08T15:48:02.664Z,20.27
2023-03-08T15:51:07.168Z,22.63
2023-03-08T15:54:13.086Z,20.33
2023-03-08T16:00:24.698Z,23.35
2023-03-08T16:03:31.577Z,17.48
2023-03-08T16:06:37.744Z,23.85
2023-03-08T16:09:41.821Z,15.90
2023-03-08T16:12:47.842Z,18.38
2023-03-08T16:15:51.962Z,19.42
2023-03-08T16:19:00.145Z,16.58
2023-03-08T16:22:05.303Z,25.85
2023-03-08T16:25:12.001Z,19.55
2023-03-08T16:28:16.077Z,19.85
2023-03-08T16:31:23.423Z,14.70
2023-03-08T16:34:30.411Z,15.93
2023-03-08T16:37:36.741Z,16.13
2023-03-08T16:40:40.830Z,18.20
2023-03-08T16:43:48.427Z,18.48
2023-03-08T16:46:53.225Z,16.38
2023-03-08T16:50:02.199Z,16.70
2023-03-08T16:53:06.265Z,17.33
2023-03-08T16:56:19.149Z,16.55
2023-03-08T16:59:23.198Z,17.65
2023-03-08T17:02:29.837Z,17.35
2023-03-08T17:05:40.088Z,16.17
2023-03-08T17:08:46.534Z,17.60
2023-03-08T17:11:50.538Z,15.73
2023-03-08T17:14:56.738Z,16.15
2023-03-08T17:18:00.679Z,16.60
2023-03-08T17:21:09.412Z,16.77
2023-03-08T17:24:15.232Z,16.35
2023-03-08T17:27:22.641Z,17.48
2023-03-08T17:30:26.655Z,16.45
2023-03-08T17:33:32.905Z,13.90
2023-03-08T17:36:39.651Z,20.17
2023-03-08T17:39:45.832Z,15.18
2023-03-08T17:42:50.128Z,14.27
2023-03-08T17:45:59.744Z,16.92
2023-03-08T17:49:03.648Z,16.27
2023-03-08T17:52:11.670Z,15.38
2023-03-08T17:55:15.517Z,15.38
2023-03-08T17:58:21.754Z,16.98
2023-03-08T18:01:27.710Z,16.30
2023-03-08T18:04:33.936Z,19.15
2023-03-08T18:07:41.763Z,15.30
2023-03-08T18:10:47.859Z,28.48
2023-03-08T18:16:57.695Z,34.08
2023-03-08T18:20:04.542Z,26.25
2023-03-08T18:23:13.030Z,20.38
2023-03-08T18:26:18.343Z,19.80
2023-03-08T18:29:24.225Z,14.40
2023-03-08T18:32:28.441Z,17.17
2023-03-08T18:35:34.976Z,15.05
2023-03-08T18:38:41.486Z,16.95
2023-03-08T18:41:47.766Z,19.10
2023-03-08T18:44:51.851Z,19.08
2023-03-08T18:47:57.755Z,16.35
2023-03-08T18:54:11.751Z,16.80
2023-03-08T18:57:15.709Z,13.73
2023-03-08T19:00:22.408Z,12.55
2023-03-08T19:03:26.386Z,18.13
2023-03-08T19:06:32.262Z,12.23
2023-03-08T19:09:38.084Z,15.77
2023-03-08T19:12:45.033Z,15.82
2023-03-08T19:15:48.929Z,13.40
2023-03-08T19:18:56.181Z,11.70
2023-03-08T19:22:00.106Z,13.07
2023-03-08T19:25:08.901Z,16.33
2023-03-08T19:28:12.771Z,15.77
2023-03-08T19:31:19.232Z,13.82
2023-03-08T19:34:25.647Z,11.23
2023-03-08T19:37:31.833Z,16.23
2023-03-08T19:40:38.294Z,15.30
2023-03-08T19:43:44.885Z,13.65
2023-03-08T19:46:49.944Z,13.35
2023-03-08T19:49:56.091Z,12.30
2023-03-08T19:53:00.133Z,13.40
2023-03-08T19:56:08.785Z,11.18
2023-03-08T19:59:13.333Z,10.07
2023-03-08T20:02:19.313Z,14.05
2023-03-08T20:05:23.280Z,11.52
2023-03-08T20:08:29.792Z,12.13
2023-03-08T20:11:35.718Z,12.90
2023-03-08T20:14:42.174Z,10.82
2023-03-08T20:17:48.263Z,9.30
2023-03-08T20:20:56.568Z,12.75
2023-03-08T20:24:03.928Z,9.20
2023-03-08T20:27:11.846Z,11.35
2023-03-08T20:30:16.100Z,9.80
2023-03-08T20:33:22.374Z,11.55
2023-03-08T20:36:27.797Z,9.52
2023-03-08T20:39:34.006Z,12.95
2023-03-08T20:42:40.152Z,13.60
2023-03-08T20:45:48.525Z,10.50
2023-03-08T20:48:52.903Z,10.95
2023-03-08T20:51:58.816Z,10.50
2023-03-08T20:55:02.918Z,15.38
2023-03-08T20:58:11.323Z,13.18
2023-03-08T21:01:17.122Z,12.40
2023-03-08T21:04:23.466Z,12.20
2023-03-08T21:07:27.682Z,14.80
2023-03-08T21:10:35.865Z,15.15
2023-03-08T21:13:42.101Z,15.45
2023-03-08T21:16:48.296Z,14.65
2023-03-08T21:19:53.290Z,15.88
2023-03-08T21:22:59.483Z,15.15
2023-03-08T21:26:03.403Z,17.02
2023-03-08T21:29:13.449Z,15.55
2023-03-08T21:32:17.488Z,17.45
2023-03-08T21:35:23.421Z,15.23
2023-03-08T21:38:27.370Z,15.27
2023-03-08T21:41:35.811Z,18.13
2023-03-08T21:44:41.942Z,14.77
2023-03-08T21:47:48.062Z,14.20
2023-03-08T21:50:52.207Z,15.05
2023-03-08T21:53:59.370Z,16.55
2023-03-08T21:57:03.540Z,13.25
2023-03-08T22:00:14.126Z,14.23
2023-03-08T22:03:18.345Z,14.77
2023-03-08T22:06:25.841Z,12.32
2023-03-08T22:09:30.208Z,12.30
2023-03-08T22:12:36.465Z,13.70
2023-03-08T22:15:42.835Z,14.52
2023-03-08T22:18:49.272Z,13.13
2023-03-08T22:21:53.229Z,14.30
2023-03-08T22:24:59.133Z,14.98
2023-03-08T22:28:03.051Z,17.48
2023-03-08T22:31:16.032Z,16.38
2023-03-08T22:34:20.312Z,17.30
2023-03-08T22:37:26.384Z,13.68
2023-03-08T22:40:30.678Z,14.40
2023-03-08T22:43:36.816Z,14.95
2023-03-08T22:46:42.780Z,17.13
2023-03-08T22:49:51.707Z,13.38
2023-03-08T22:52:55.628Z,20.60
2023-03-08T22:56:01.686Z,13.60
2023-03-08T22:59:06.096Z,14.40
2023-03-08T23:02:14.389Z,16.33
2023-03-08T23:05:21.067Z,13.30
2023-03-08T23:08:26.972Z,16.10
2023-03-08T23:11:32.034Z,16.70
2023-03-08T23:14:38.317Z,16.65
2023-03-08T23:17:44.313Z,17.42
2023-03-08T23:20:50.589Z,16.60
2023-03-08T23:23:54.932Z,17.95
2023-03-08T23:27:02.824Z,19.33
2023-03-08T23:30:08.244Z,21.58
2023-03-08T23:33:16.527Z,17.17
2023-03-08T23:36:26.223Z,18.60
2023-03-08T23:39:33.319Z,19.63
2023-03-08T23:42:37.185Z,18.90
2023-03-08T23:45:43.337Z,20.50
2023-03-08T23:48:50.130Z,17.25
2023-03-08T23:51:56.011Z,22.55
2023-03-08T23:54:59.901Z,18.77
2023-03-08T23:58:05.985Z,20.48
